Braine-l'Alleud, Belgium
Current Conditions -  °F | °C
As of 3:20 AM on Sunday 23 Nov 2014 (Local Time) from EBCI Reporting Station
Clear Clear  
Wind Chill: 52°   Ceiling: Unl
Heat Index: 52°   Visibility: 6mi
Dew Point: 48°   Wind: 7mph
Humidity: 88%   Direction: 150°SSE
Pressure: 30.03"   Gusts: NA
Location:  50.68°N, 4.37°E
Report Text: EBCI 230220Z 15006KT CAVOK 11/09 Q1017 NOSIG
Loading
Personal Weather Stations






























Interactive Weather Map New forecast layout! Learn more

10-Day Weather Forecast

Advertisements
Track Severe Weather on mobile